sensor_id;sensor_type;location;lat;lon;timestamp;P1;durP1;ratioP1;P2;durP2;ratioP2
14373;SDS011;7270;49.004;12.066;2023-08-07T00:01:28;2.30;;;2.20;;
14373;SDS011;7270;49.004;12.066;2023-08-07T00:03:54;2.20;;;2.10;;
14373;SDS011;7270;49.004;12.066;2023-08-07T00:06:20;2.10;;;2.00;;
14373;SDS011;7270;49.004;12.066;2023-08-07T00:08:47;2.20;;;2.10;;
14373;SDS011;7270;49.004;12.066;2023-08-07T00:11:13;2.20;;;2.10;;
14373;SDS011;7270;49.004;12.066;2023-08-07T00:13:40;2.30;;;2.20;;
14373;SDS011;7270;49.004;12.066;2023-08-07T00:16:07;2.20;;;2.10;;
14373;SDS011;7270;49.004;12.066;2023-08-07T00:18:35;1.83;;;1.73;;
14373;SDS011;7270;49.004;12.066;2023-08-07T00:21:01;2.00;;;1.90;;
14373;SDS011;7270;49.004;12.066;2023-08-07T00:23:28;2.10;;;2.00;;
14373;SDS011;7270;49.004;12.066;2023-08-07T00:25:54;1.90;;;1.80;;
14373;SDS011;7270;49.004;12.066;2023-08-07T00:28:20;2.00;;;1.90;;
14373;SDS011;7270;49.004;12.066;2023-08-07T00:30:48;2.20;;;2.10;;
14373;SDS011;7270;49.004;12.066;2023-08-07T00:33:14;2.10;;;2.00;;
14373;SDS011;7270;49.004;12.066;2023-08-07T00:35:40;2.00;;;1.90;;
14373;SDS011;7270;49.004;12.066;2023-08-07T00:38:06;2.20;;;2.10;;
14373;SDS011;7270;49.004;12.066;2023-08-07T00:40:36;2.00;;;1.90;;
14373;SDS011;7270;49.004;12.066;2023-08-07T00:43:03;2.00;;;1.90;;
14373;SDS011;7270;49.004;12.066;2023-08-07T00:45:29;2.03;;;1.93;;
14373;SDS011;7270;49.004;12.066;2023-08-07T00:47:57;2.00;;;1.90;;
14373;SDS011;7270;49.004;12.066;2023-08-07T00:50:23;1.97;;;1.87;;
14373;SDS011;7270;49.004;12.066;2023-08-07T00:52:50;1.90;;;1.80;;
14373;SDS011;7270;49.004;12.066;2023-08-07T00:55:16;2.00;;;1.90;;
14373;SDS011;7270;49.004;12.066;2023-08-07T00:57:43;2.00;;;1.90;;
14373;SDS011;7270;49.004;12.066;2023-08-07T01:00:09;1.93;;;1.83;;
14373;SDS011;7270;49.004;12.066;2023-08-07T01:02:36;2.00;;;1.90;;
14373;SDS011;7270;49.004;12.066;2023-08-07T01:05:04;1.90;;;1.80;;
14373;SDS011;7270;49.004;12.066;2023-08-07T01:07:31;2.00;;;1.90;;
14373;SDS011;7270;49.004;12.066;2023-08-07T01:09:57;1.90;;;1.80;;
14373;SDS011;7270;49.004;12.066;2023-08-07T01:12:28;2.00;;;1.90;;
14373;SDS011;7270;49.004;12.066;2023-08-07T01:14:57;2.10;;;2.00;;
14373;SDS011;7270;49.004;12.066;2023-08-07T01:17:25;2.07;;;1.97;;
14373;SDS011;7270;49.004;12.066;2023-08-07T01:19:51;2.10;;;2.00;;
14373;SDS011;7270;49.004;12.066;2023-08-07T01:22:19;2.10;;;2.00;;
14373;SDS011;7270;49.004;12.066;2023-08-07T01:24:46;2.10;;;2.00;;
14373;SDS011;7270;49.004;12.066;2023-08-07T01:27:15;2.00;;;1.90;;
14373;SDS011;7270;49.004;12.066;2023-08-07T01:29:47;2.00;;;1.90;;
14373;SDS011;7270;49.004;12.066;2023-08-07T01:32:19;2.03;;;1.93;;
14373;SDS011;7270;49.004;12.066;2023-08-07T01:34:47;2.20;;;2.10;;
14373;SDS011;7270;49.004;12.066;2023-08-07T01:37:14;2.00;;;1.90;;
14373;SDS011;7270;49.004;12.066;2023-08-07T01:39:42;2.10;;;2.00;;
14373;SDS011;7270;49.004;12.066;2023-08-07T01:42:09;2.20;;;2.10;;
14373;SDS011;7270;49.004;12.066;2023-08-07T01:44:36;2.00;;;1.90;;
14373;SDS011;7270;49.004;12.066;2023-08-07T01:47:02;2.20;;;2.10;;
14373;SDS011;7270;49.004;12.066;2023-08-07T01:49:29;2.13;;;2.03;;
14373;SDS011;7270;49.004;12.066;2023-08-07T01:51:55;2.10;;;2.00;;
14373;SDS011;7270;49.004;12.066;2023-08-07T01:54:21;2.10;;;2.00;;
14373;SDS011;7270;49.004;12.066;2023-08-07T01:56:49;1.90;;;1.80;;
14373;SDS011;7270;49.004;12.066;2023-08-07T01:59:15;2.17;;;2.07;;
14373;SDS011;7270;49.004;12.066;2023-08-07T02:01:41;2.10;;;2.00;;
14373;SDS011;7270;49.004;12.066;2023-08-07T02:04:08;1.90;;;1.80;;
14373;SDS011;7270;49.004;12.066;2023-08-07T02:06:34;2.00;;;1.90;;
14373;SDS011;7270;49.004;12.066;2023-08-07T02:09:00;2.00;;;1.90;;
14373;SDS011;7270;49.004;12.066;2023-08-07T02:11:27;2.00;;;1.90;;
14373;SDS011;7270;49.004;12.066;2023-08-07T02:13:54;2.00;;;1.90;;
14373;SDS011;7270;49.004;12.066;2023-08-07T02:16:20;1.90;;;1.80;;
14373;SDS011;7270;49.004;12.066;2023-08-07T02:18:47;1.87;;;1.77;;
14373;SDS011;7270;49.004;12.066;2023-08-07T02:21:13;2.10;;;2.00;;
14373;SDS011;7270;49.004;12.066;2023-08-07T02:23:39;2.00;;;1.90;;
14373;SDS011;7270;49.004;12.066;2023-08-07T02:26:06;2.13;;;2.03;;
14373;SDS011;7270;49.004;12.066;2023-08-07T02:28:32;1.90;;;1.80;;
14373;SDS011;7270;49.004;12.066;2023-08-07T02:31:00;1.90;;;1.80;;
14373;SDS011;7270;49.004;12.066;2023-08-07T02:33:34;2.00;;;1.90;;
14373;SDS011;7270;49.004;12.066;2023-08-07T02:36:00;1.90;;;1.80;;
14373;SDS011;7270;49.004;12.066;2023-08-07T02:38:26;1.90;;;1.80;;
14373;SDS011;7270;49.004;12.066;2023-08-07T02:40:53;1.80;;;1.70;;
14373;SDS011;7270;49.004;12.066;2023-08-07T02:43:19;2.00;;;1.90;;
14373;SDS011;7270;49.004;12.066;2023-08-07T02:45:45;2.00;;;1.90;;
14373;SDS011;7270;49.004;12.066;2023-08-07T02:48:13;2.00;;;1.90;;
14373;SDS011;7270;49.004;12.066;2023-08-07T02:50:39;1.90;;;1.80;;
14373;SDS011;7270;49.004;12.066;2023-08-07T02:53:05;2.10;;;2.00;;
14373;SDS011;7270;49.004;12.066;2023-08-07T02:55:32;2.10;;;2.00;;
14373;SDS011;7270;49.004;12.066;2023-08-07T02:57:58;2.10;;;2.00;;
14373;SDS011;7270;49.004;12.066;2023-08-07T03:00:25;2.00;;;1.90;;
14373;SDS011;7270;49.004;12.066;2023-08-07T03:02:51;1.93;;;1.83;;
14373;SDS011;7270;49.004;12.066;2023-08-07T03:05:19;1.90;;;1.80;;
14373;SDS011;7270;49.004;12.066;2023-08-07T03:07:45;2.10;;;2.00;;
14373;SDS011;7270;49.004;12.066;2023-08-07T03:10:12;2.10;;;2.00;;
14373;SDS011;7270;49.004;12.066;2023-08-07T03:12:39;2.00;;;1.90;;
14373;SDS011;7270;49.004;12.066;2023-08-07T03:15:06;2.00;;;1.90;;
14373;SDS011;7270;49.004;12.066;2023-08-07T03:17:32;2.20;;;2.10;;
14373;SDS011;7270;49.004;12.066;2023-08-07T03:19:58;2.10;;;2.00;;
14373;SDS011;7270;49.004;12.066;2023-08-07T03:22:26;2.10;;;2.00;;
14373;SDS011;7270;49.004;12.066;2023-08-07T03:24:52;2.20;;;2.10;;
14373;SDS011;7270;49.004;12.066;2023-08-07T03:27:18;2.30;;;2.20;;
14373;SDS011;7270;49.004;12.066;2023-08-07T03:29:45;2.00;;;1.90;;
14373;SDS011;7270;49.004;12.066;2023-08-07T03:32:11;2.00;;;1.90;;
14373;SDS011;7270;49.004;12.066;2023-08-07T03:34:37;2.00;;;1.90;;
14373;SDS011;7270;49.004;12.066;2023-08-07T03:37:04;2.10;;;2.00;;
14373;SDS011;7270;49.004;12.066;2023-08-07T03:39:31;2.10;;;2.00;;
14373;SDS011;7270;49.004;12.066;2023-08-07T03:41:58;2.10;;;2.00;;
14373;SDS011;7270;49.004;12.066;2023-08-07T03:44:24;2.00;;;1.90;;
14373;SDS011;7270;49.004;12.066;2023-08-07T03:46:50;2.00;;;1.90;;
14373;SDS011;7270;49.004;12.066;2023-08-07T03:49:17;1.90;;;1.80;;
14373;SDS011;7270;49.004;12.066;2023-08-07T03:51:43;2.00;;;1.90;;
14373;SDS011;7270;49.004;12.066;2023-08-07T03:56:50;2.10;;;2.00;;
14373;SDS011;7270;49.004;12.066;2023-08-07T03:59:16;2.00;;;1.90;;
14373;SDS011;7270;49.004;12.066;2023-08-07T04:01:43;2.10;;;2.00;;
14373;SDS011;7270;49.004;12.066;2023-08-07T04:04:09;2.10;;;2.00;;
14373;SDS011;7270;49.004;12.066;2023-08-07T04:06:35;2.10;;;2.00;;
14373;SDS011;7270;49.004;12.066;2023-08-07T04:09:02;2.10;;;2.00;;
14373;SDS011;7270;49.004;12.066;2023-08-07T04:11:28;1.90;;;1.80;;
14373;SDS011;7270;49.004;12.066;2023-08-07T04:13:56;2.00;;;1.90;;
14373;SDS011;7270;49.004;12.066;2023-08-07T04:16:22;2.00;;;1.90;;
14373;SDS011;7270;49.004;12.066;2023-08-07T04:18:48;1.90;;;1.80;;
14373;SDS011;7270;49.004;12.066;2023-08-07T04:21:15;2.10;;;2.00;;
14373;SDS011;7270;49.004;12.066;2023-08-07T04:23:41;2.10;;;2.00;;
14373;SDS011;7270;49.004;12.066;2023-08-07T04:26:07;2.10;;;2.00;;
14373;SDS011;7270;49.004;12.066;2023-08-07T04:28:33;2.00;;;1.90;;
14373;SDS011;7270;49.004;12.066;2023-08-07T04:31:01;2.10;;;2.00;;
14373;SDS011;7270;49.004;12.066;2023-08-07T04:33:28;1.90;;;1.80;;
14373;SDS011;7270;49.004;12.066;2023-08-07T04:35:53;1.90;;;1.80;;
14373;SDS011;7270;49.004;12.066;2023-08-07T04:38:19;2.20;;;2.10;;
14373;SDS011;7270;49.004;12.066;2023-08-07T04:40:46;2.30;;;2.20;;
14373;SDS011;7270;49.004;12.066;2023-08-07T04:43:12;2.10;;;2.00;;
14373;SDS011;7270;49.004;12.066;2023-08-07T04:45:39;2.10;;;2.00;;
14373;SDS011;7270;49.004;12.066;2023-08-07T04:48:06;2.30;;;2.20;;
14373;SDS011;7270;49.004;12.066;2023-08-07T04:50:33;2.20;;;2.10;;
14373;SDS011;7270;49.004;12.066;2023-08-07T04:52:59;2.20;;;2.10;;
14373;SDS011;7270;49.004;12.066;2023-08-07T04:55:26;2.20;;;2.10;;
14373;SDS011;7270;49.004;12.066;2023-08-07T04:57:52;2.40;;;2.30;;
14373;SDS011;7270;49.004;12.066;2023-08-07T05:00:19;2.20;;;2.10;;
14373;SDS011;7270;49.004;12.066;2023-08-07T05:02:46;2.20;;;2.10;;
14373;SDS011;7270;49.004;12.066;2023-08-07T05:05:14;2.20;;;2.10;;
14373;SDS011;7270;49.004;12.066;2023-08-07T05:07:40;2.30;;;2.20;;
14373;SDS011;7270;49.004;12.066;2023-08-07T05:10:08;2.20;;;2.10;;
14373;SDS011;7270;49.004;12.066;2023-08-07T05:12:34;2.10;;;2.00;;
14373;SDS011;7270;49.004;12.066;2023-08-07T05:15:01;2.10;;;2.00;;
14373;SDS011;7270;49.004;12.066;2023-08-07T05:17:27;2.20;;;2.10;;
14373;SDS011;7270;49.004;12.066;2023-08-07T05:19:53;2.10;;;2.00;;
14373;SDS011;7270;49.004;12.066;2023-08-07T05:22:21;2.20;;;2.10;;
14373;SDS011;7270;49.004;12.066;2023-08-07T05:24:47;2.30;;;2.20;;
14373;SDS011;7270;49.004;12.066;2023-08-07T05:27:14;2.10;;;2.00;;
14373;SDS011;7270;49.004;12.066;2023-08-07T05:29:40;1.90;;;1.80;;
14373;SDS011;7270;49.004;12.066;2023-08-07T05:32:09;2.07;;;1.97;;
14373;SDS011;7270;49.004;12.066;2023-08-07T05:34:36;2.00;;;1.90;;
14373;SDS011;7270;49.004;12.066;2023-08-07T05:37:02;2.10;;;2.00;;
14373;SDS011;7270;49.004;12.066;2023-08-07T05:39:30;2.30;;;2.20;;
14373;SDS011;7270;49.004;12.066;2023-08-07T05:41:56;2.00;;;1.90;;
14373;SDS011;7270;49.004;12.066;2023-08-07T05:44:23;1.90;;;1.80;;
14373;SDS011;7270;49.004;12.066;2023-08-07T05:46:49;2.10;;;2.00;;
14373;SDS011;7270;49.004;12.066;2023-08-07T05:49:15;1.87;;;1.77;;
14373;SDS011;7270;49.004;12.066;2023-08-07T05:51:42;2.00;;;1.90;;
14373;SDS011;7270;49.004;12.066;2023-08-07T05:54:08;2.10;;;2.00;;
14373;SDS011;7270;49.004;12.066;2023-08-07T05:56:37;2.10;;;2.00;;
14373;SDS011;7270;49.004;12.066;2023-08-07T05:59:03;2.07;;;1.97;;
14373;SDS011;7270;49.004;12.066;2023-08-07T06:01:29;2.03;;;1.93;;
14373;SDS011;7270;49.004;12.066;2023-08-07T06:03:56;2.30;;;2.20;;
14373;SDS011;7270;49.004;12.066;2023-08-07T06:06:23;2.20;;;2.10;;
14373;SDS011;7270;49.004;12.066;2023-08-07T06:08:50;1.97;;;1.87;;
14373;SDS011;7270;49.004;12.066;2023-08-07T06:11:16;2.10;;;2.00;;
14373;SDS011;7270;49.004;12.066;2023-08-07T06:13:44;2.20;;;2.10;;
14373;SDS011;7270;49.004;12.066;2023-08-07T06:16:10;2.10;;;2.00;;
14373;SDS011;7270;49.004;12.066;2023-08-07T06:18:36;2.10;;;2.00;;
14373;SDS011;7270;49.004;12.066;2023-08-07T06:21:03;2.10;;;2.00;;
14373;SDS011;7270;49.004;12.066;2023-08-07T06:23:31;2.00;;;1.90;;
14373;SDS011;7270;49.004;12.066;2023-08-07T06:25:58;2.10;;;2.00;;
14373;SDS011;7270;49.004;12.066;2023-08-07T06:28:24;2.00;;;1.90;;
14373;SDS011;7270;49.004;12.066;2023-08-07T06:30:51;1.97;;;1.87;;
14373;SDS011;7270;49.004;12.066;2023-08-07T06:33:18;2.10;;;2.00;;
14373;SDS011;7270;49.004;12.066;2023-08-07T06:35:44;2.10;;;2.00;;
14373;SDS011;7270;49.004;12.066;2023-08-07T06:38:10;2.10;;;2.00;;
14373;SDS011;7270;49.004;12.066;2023-08-07T06:40:37;2.20;;;2.10;;
14373;SDS011;7270;49.004;12.066;2023-08-07T06:43:03;2.13;;;2.03;;
14373;SDS011;7270;49.004;12.066;2023-08-07T06:45:29;2.10;;;2.00;;
14373;SDS011;7270;49.004;12.066;2023-08-07T06:47:57;2.03;;;1.93;;
14373;SDS011;7270;49.004;12.066;2023-08-07T06:50:23;2.40;;;2.30;;
14373;SDS011;7270;49.004;12.066;2023-08-07T06:52:50;2.30;;;2.20;;
14373;SDS011;7270;49.004;12.066;2023-08-07T06:55:16;2.20;;;2.10;;
14373;SDS011;7270;49.004;12.066;2023-08-07T06:57:43;2.10;;;2.00;;
14373;SDS011;7270;49.004;12.066;2023-08-07T07:00:10;2.10;;;2.00;;
14373;SDS011;7270;49.004;12.066;2023-08-07T07:02:37;2.20;;;2.10;;
14373;SDS011;7270;49.004;12.066;2023-08-07T07:05:04;2.30;;;2.20;;
14373;SDS011;7270;49.004;12.066;2023-08-07T07:07:31;2.47;;;2.37;;
14373;SDS011;7270;49.004;12.066;2023-08-07T07:09:57;2.27;;;2.17;;
14373;SDS011;7270;49.004;12.066;2023-08-07T07:12:25;2.20;;;2.10;;
14373;SDS011;7270;49.004;12.066;2023-08-07T07:14:51;2.30;;;2.20;;
14373;SDS011;7270;49.004;12.066;2023-08-07T07:17:18;2.40;;;2.30;;
14373;SDS011;7270;49.004;12.066;2023-08-07T07:19:44;2.20;;;2.10;;
14373;SDS011;7270;49.004;12.066;2023-08-07T07:22:12;2.30;;;2.20;;
14373;SDS011;7270;49.004;12.066;2023-08-07T07:24:38;2.30;;;2.20;;
14373;SDS011;7270;49.004;12.066;2023-08-07T07:27:05;2.30;;;2.20;;
14373;SDS011;7270;49.004;12.066;2023-08-07T07:29:31;2.17;;;2.07;;
14373;SDS011;7270;49.004;12.066;2023-08-07T07:31:57;2.20;;;2.10;;
14373;SDS011;7270;49.004;12.066;2023-08-07T07:34:24;2.30;;;2.20;;
14373;SDS011;7270;49.004;12.066;2023-08-07T07:36:50;2.30;;;2.20;;
14373;SDS011;7270;49.004;12.066;2023-08-07T07:39:20;2.10;;;2.00;;
14373;SDS011;7270;49.004;12.066;2023-08-07T07:41:46;2.20;;;2.10;;
14373;SDS011;7270;49.004;12.066;2023-08-07T07:44:12;2.10;;;2.00;;
14373;SDS011;7270;49.004;12.066;2023-08-07T07:46:39;2.20;;;2.10;;
14373;SDS011;7270;49.004;12.066;2023-08-07T07:49:05;2.10;;;2.00;;
14373;SDS011;7270;49.004;12.066;2023-08-07T07:51:31;2.30;;;2.20;;
14373;SDS011;7270;49.004;12.066;2023-08-07T07:53:58;2.10;;;2.00;;
14373;SDS011;7270;49.004;12.066;2023-08-07T07:56:25;2.13;;;2.03;;
14373;SDS011;7270;49.004;12.066;2023-08-07T07:58:51;2.20;;;2.10;;
14373;SDS011;7270;49.004;12.066;2023-08-07T08:01:18;2.20;;;2.10;;
14373;SDS011;7270;49.004;12.066;2023-08-07T08:03:44;2.20;;;2.10;;
14373;SDS011;7270;49.004;12.066;2023-08-07T08:06:11;2.10;;;2.00;;
14373;SDS011;7270;49.004;12.066;2023-08-07T08:08:37;2.10;;;2.00;;
14373;SDS011;7270;49.004;12.066;2023-08-07T08:11:03;2.20;;;2.10;;
14373;SDS011;7270;49.004;12.066;2023-08-07T08:13:31;2.10;;;2.00;;
14373;SDS011;7270;49.004;12.066;2023-08-07T08:15:58;2.10;;;2.00;;
14373;SDS011;7270;49.004;12.066;2023-08-07T08:18:24;2.20;;;2.10;;
14373;SDS011;7270;49.004;12.066;2023-08-07T08:20:51;2.00;;;1.90;;
14373;SDS011;7270;49.004;12.066;2023-08-07T08:23:17;2.10;;;2.00;;
14373;SDS011;7270;49.004;12.066;2023-08-07T08:25:44;2.20;;;2.10;;
14373;SDS011;7270;49.004;12.066;2023-08-07T08:28:10;2.17;;;2.07;;
14373;SDS011;7270;49.004;12.066;2023-08-07T08:30:37;2.20;;;2.10;;
14373;SDS011;7270;49.004;12.066;2023-08-07T08:33:04;2.00;;;1.90;;
14373;SDS011;7270;49.004;12.066;2023-08-07T08:35:31;2.10;;;2.00;;
14373;SDS011;7270;49.004;12.066;2023-08-07T08:37:57;2.10;;;2.00;;
14373;SDS011;7270;49.004;12.066;2023-08-07T08:40:24;2.10;;;2.00;;
14373;SDS011;7270;49.004;12.066;2023-08-07T08:42:50;1.97;;;1.87;;
14373;SDS011;7270;49.004;12.066;2023-08-07T08:45:18;2.10;;;2.00;;
14373;SDS011;7270;49.004;12.066;2023-08-07T08:47:47;2.10;;;2.00;;
14373;SDS011;7270;49.004;12.066;2023-08-07T08:50:15;2.10;;;2.00;;
14373;SDS011;7270;49.004;12.066;2023-08-07T08:52:42;2.00;;;1.90;;
14373;SDS011;7270;49.004;12.066;2023-08-07T08:55:09;1.80;;;1.70;;
14373;SDS011;7270;49.004;12.066;2023-08-07T08:57:36;2.00;;;1.90;;
14373;SDS011;7270;49.004;12.066;2023-08-07T09:00:03;2.10;;;2.00;;
14373;SDS011;7270;49.004;12.066;2023-08-07T09:02:40;2.10;;;2.00;;
14373;SDS011;7270;49.004;12.066;2023-08-07T09:05:08;2.00;;;1.90;;
14373;SDS011;7270;49.004;12.066;2023-08-07T09:07:35;2.00;;;1.90;;
14373;SDS011;7270;49.004;12.066;2023-08-07T09:10:02;2.00;;;1.90;;
14373;SDS011;7270;49.004;12.066;2023-08-07T09:12:29;2.10;;;2.00;;
14373;SDS011;7270;49.004;12.066;2023-08-07T09:14:56;2.03;;;1.93;;
14373;SDS011;7270;49.004;12.066;2023-08-07T09:17:23;2.00;;;1.90;;
14373;SDS011;7270;49.004;12.066;2023-08-07T09:19:50;2.03;;;1.93;;
14373;SDS011;7270;49.004;12.066;2023-08-07T09:22:18;1.90;;;1.80;;
14373;SDS011;7270;49.004;12.066;2023-08-07T09:24:44;2.10;;;2.00;;
14373;SDS011;7270;49.004;12.066;2023-08-07T09:27:11;2.03;;;1.93;;
14373;SDS011;7270;49.004;12.066;2023-08-07T09:29:38;2.00;;;1.90;;
14373;SDS011;7270;49.004;12.066;2023-08-07T09:32:08;2.00;;;1.90;;
14373;SDS011;7270;49.004;12.066;2023-08-07T09:34:34;1.80;;;1.70;;
14373;SDS011;7270;49.004;12.066;2023-08-07T09:37:01;1.90;;;1.80;;
14373;SDS011;7270;49.004;12.066;2023-08-07T09:39:29;2.00;;;1.90;;
14373;SDS011;7270;49.004;12.066;2023-08-07T09:41:55;1.90;;;1.80;;
14373;SDS011;7270;49.004;12.066;2023-08-07T09:44:22;1.80;;;1.70;;
14373;SDS011;7270;49.004;12.066;2023-08-07T09:46:48;1.80;;;1.70;;
14373;SDS011;7270;49.004;12.066;2023-08-07T09:49:14;1.90;;;1.80;;
14373;SDS011;7270;49.004;12.066;2023-08-07T09:51:41;1.60;;;1.50;;
14373;SDS011;7270;49.004;12.066;2023-08-07T09:54:08;1.90;;;1.80;;
14373;SDS011;7270;49.004;12.066;2023-08-07T09:56:36;1.70;;;1.60;;
14373;SDS011;7270;49.004;12.066;2023-08-07T09:59:03;1.70;;;1.60;;
14373;SDS011;7270;49.004;12.066;2023-08-07T10:01:29;1.60;;;1.50;;
14373;SDS011;7270;49.004;12.066;2023-08-07T10:03:55;1.53;;;1.43;;
14373;SDS011;7270;49.004;12.066;2023-08-07T10:06:22;1.60;;;1.50;;
14373;SDS011;7270;49.004;12.066;2023-08-07T10:08:48;1.50;;;1.40;;
14373;SDS011;7270;49.004;12.066;2023-08-07T10:11:15;1.40;;;1.30;;
14373;SDS011;7270;49.004;12.066;2023-08-07T10:13:43;1.43;;;1.33;;
14373;SDS011;7270;49.004;12.066;2023-08-07T10:16:09;1.20;;;1.20;;
14373;SDS011;7270;49.004;12.066;2023-08-07T10:18:36;1.27;;;1.20;;
14373;SDS011;7270;49.004;12.066;2023-08-07T10:21:03;1.20;;;1.20;;
14373;SDS011;7270;49.004;12.066;2023-08-07T10:23:31;1.10;;;1.10;;
14373;SDS011;7270;49.004;12.066;2023-08-07T10:25:59;0.97;;;0.97;;
14373;SDS011;7270;49.004;12.066;2023-08-07T10:28:25;1.10;;;1.10;;
14373;SDS011;7270;49.004;12.066;2023-08-07T10:30:53;1.10;;;1.10;;
14373;SDS011;7270;49.004;12.066;2023-08-07T10:33:20;1.10;;;1.10;;
14373;SDS011;7270;49.004;12.066;2023-08-07T10:35:47;1.00;;;1.00;;
14373;SDS011;7270;49.004;12.066;2023-08-07T10:38:14;1.30;;;1.20;;
14373;SDS011;7270;49.004;12.066;2023-08-07T10:41:00;1.20;;;1.20;;
14373;SDS011;7270;49.004;12.066;2023-08-07T10:43:27;1.10;;;1.10;;
14373;SDS011;7270;49.004;12.066;2023-08-07T10:45:55;1.10;;;1.10;;
14373;SDS011;7270;49.004;12.066;2023-08-07T10:48:25;1.10;;;1.10;;
14373;SDS011;7270;49.004;12.066;2023-08-07T10:50:55;1.20;;;1.20;;
14373;SDS011;7270;49.004;12.066;2023-08-07T10:53:28;1.10;;;1.10;;
14373;SDS011;7270;49.004;12.066;2023-08-07T10:55:54;1.10;;;1.10;;
14373;SDS011;7270;49.004;12.066;2023-08-07T10:58:23;1.10;;;1.10;;
14373;SDS011;7270;49.004;12.066;2023-08-07T11:00:49;1.10;;;1.10;;
14373;SDS011;7270;49.004;12.066;2023-08-07T11:03:21;1.00;;;1.00;;
14373;SDS011;7270;49.004;12.066;2023-08-07T11:05:51;1.10;;;1.10;;
14373;SDS011;7270;49.004;12.066;2023-08-07T11:08:21;1.10;;;1.10;;
14373;SDS011;7270;49.004;12.066;2023-08-07T11:10:47;1.10;;;1.10;;
14373;SDS011;7270;49.004;12.066;2023-08-07T11:13:13;1.10;;;1.10;;
14373;SDS011;7270;49.004;12.066;2023-08-07T11:15:40;1.10;;;1.10;;
14373;SDS011;7270;49.004;12.066;2023-08-07T11:18:06;1.10;;;1.10;;
14373;SDS011;7270;49.004;12.066;2023-08-07T11:20:35;1.20;;;1.20;;
14373;SDS011;7270;49.004;12.066;2023-08-07T11:23:03;1.10;;;1.10;;
14373;SDS011;7270;49.004;12.066;2023-08-07T11:25:30;1.10;;;1.10;;
14373;SDS011;7270;49.004;12.066;2023-08-07T11:27:56;1.13;;;1.13;;
14373;SDS011;7270;49.004;12.066;2023-08-07T11:30:23;1.17;;;1.17;;
14373;SDS011;7270;49.004;12.066;2023-08-07T11:32:49;1.10;;;1.10;;
14373;SDS011;7270;49.004;12.066;2023-08-07T11:35:15;1.00;;;1.00;;
14373;SDS011;7270;49.004;12.066;2023-08-07T11:37:46;1.23;;;1.20;;
14373;SDS011;7270;49.004;12.066;2023-08-07T11:40:12;1.20;;;1.20;;
14373;SDS011;7270;49.004;12.066;2023-08-07T11:42:39;1.10;;;1.10;;
14373;SDS011;7270;49.004;12.066;2023-08-07T11:45:06;1.10;;;1.10;;
14373;SDS011;7270;49.004;12.066;2023-08-07T11:47:33;1.10;;;1.10;;
14373;SDS011;7270;49.004;12.066;2023-08-07T11:50:00;1.13;;;1.13;;
14373;SDS011;7270;49.004;12.066;2023-08-07T11:52:27;1.10;;;1.10;;
14373;SDS011;7270;49.004;12.066;2023-08-07T11:54:55;1.10;;;1.10;;
14373;SDS011;7270;49.004;12.066;2023-08-07T11:57:21;1.10;;;1.10;;
14373;SDS011;7270;49.004;12.066;2023-08-07T11:59:49;1.10;;;1.10;;
14373;SDS011;7270;49.004;12.066;2023-08-07T12:02:15;1.27;;;1.20;;
14373;SDS011;7270;49.004;12.066;2023-08-07T12:04:41;1.10;;;1.10;;
14373;SDS011;7270;49.004;12.066;2023-08-07T12:07:08;1.13;;;1.13;;
14373;SDS011;7270;49.004;12.066;2023-08-07T12:09:36;1.17;;;1.17;;
14373;SDS011;7270;49.004;12.066;2023-08-07T12:12:04;1.40;;;1.30;;
14373;SDS011;7270;49.004;12.066;2023-08-07T12:14:31;1.27;;;1.20;;
14373;SDS011;7270;49.004;12.066;2023-08-07T12:16:59;1.10;;;1.10;;
14373;SDS011;7270;49.004;12.066;2023-08-07T12:19:34;1.10;;;1.10;;
14373;SDS011;7270;49.004;12.066;2023-08-07T12:22:01;1.20;;;1.20;;
14373;SDS011;7270;49.004;12.066;2023-08-07T12:24:29;1.10;;;1.10;;
14373;SDS011;7270;49.004;12.066;2023-08-07T12:26:55;1.10;;;1.10;;
14373;SDS011;7270;49.004;12.066;2023-08-07T12:29:23;1.10;;;1.10;;
14373;SDS011;7270;49.004;12.066;2023-08-07T12:31:53;1.00;;;1.00;;
14373;SDS011;7270;49.004;12.066;2023-08-07T12:34:20;1.10;;;1.10;;
14373;SDS011;7270;49.004;12.066;2023-08-07T12:36:46;1.00;;;1.00;;
14373;SDS011;7270;49.004;12.066;2023-08-07T12:39:12;1.10;;;1.10;;
14373;SDS011;7270;49.004;12.066;2023-08-07T12:41:40;1.20;;;1.20;;
14373;SDS011;7270;49.004;12.066;2023-08-07T12:44:06;1.10;;;1.10;;
14373;SDS011;7270;49.004;12.066;2023-08-07T12:46:33;1.27;;;1.23;;
14373;SDS011;7270;49.004;12.066;2023-08-07T12:49:01;1.10;;;1.10;;
14373;SDS011;7270;49.004;12.066;2023-08-07T12:51:28;1.10;;;1.10;;
14373;SDS011;7270;49.004;12.066;2023-08-07T12:53:54;1.23;;;1.20;;
14373;SDS011;7270;49.004;12.066;2023-08-07T12:56:20;1.13;;;1.13;;
14373;SDS011;7270;49.004;12.066;2023-08-07T12:58:46;1.30;;;1.20;;
14373;SDS011;7270;49.004;12.066;2023-08-07T13:01:13;1.40;;;1.30;;
14373;SDS011;7270;49.004;12.066;2023-08-07T13:03:40;1.10;;;1.10;;
14373;SDS011;7270;49.004;12.066;2023-08-07T13:06:07;1.13;;;1.13;;
14373;SDS011;7270;49.004;12.066;2023-08-07T13:08:33;1.30;;;1.20;;
14373;SDS011;7270;49.004;12.066;2023-08-07T13:11:00;1.30;;;1.20;;
14373;SDS011;7270;49.004;12.066;2023-08-07T13:13:26;1.20;;;1.20;;
14373;SDS011;7270;49.004;12.066;2023-08-07T13:15:53;1.20;;;1.20;;
14373;SDS011;7270;49.004;12.066;2023-08-07T13:18:19;1.30;;;1.20;;
14373;SDS011;7270;49.004;12.066;2023-08-07T13:20:47;1.40;;;1.30;;
14373;SDS011;7270;49.004;12.066;2023-08-07T13:23:14;1.40;;;1.30;;
14373;SDS011;7270;49.004;12.066;2023-08-07T13:25:40;1.30;;;1.20;;
14373;SDS011;7270;49.004;12.066;2023-08-07T13:28:06;1.20;;;1.20;;
14373;SDS011;7270;49.004;12.066;2023-08-07T13:30:32;1.40;;;1.30;;
14373;SDS011;7270;49.004;12.066;2023-08-07T13:32:59;1.40;;;1.30;;
14373;SDS011;7270;49.004;12.066;2023-08-07T13:35:25;1.40;;;1.30;;
14373;SDS011;7270;49.004;12.066;2023-08-07T13:37:53;1.30;;;1.20;;
14373;SDS011;7270;49.004;12.066;2023-08-07T13:40:19;1.40;;;1.30;;
14373;SDS011;7270;49.004;12.066;2023-08-07T13:42:45;1.20;;;1.20;;
14373;SDS011;7270;49.004;12.066;2023-08-07T13:45:12;1.20;;;1.20;;
14373;SDS011;7270;49.004;12.066;2023-08-07T13:47:38;1.40;;;1.30;;
14373;SDS011;7270;49.004;12.066;2023-08-07T13:50:06;1.30;;;1.20;;
14373;SDS011;7270;49.004;12.066;2023-08-07T13:52:33;1.20;;;1.20;;
14373;SDS011;7270;49.004;12.066;2023-08-07T13:55:00;1.20;;;1.20;;
14373;SDS011;7270;49.004;12.066;2023-08-07T13:57:26;1.40;;;1.30;;
14373;SDS011;7270;49.004;12.066;2023-08-07T13:59:53;1.40;;;1.30;;
14373;SDS011;7270;49.004;12.066;2023-08-07T14:02:20;1.40;;;1.30;;
14373;SDS011;7270;49.004;12.066;2023-08-07T14:04:46;1.30;;;1.20;;
14373;SDS011;7270;49.004;12.066;2023-08-07T14:07:12;1.40;;;1.30;;
14373;SDS011;7270;49.004;12.066;2023-08-07T14:09:39;1.23;;;1.20;;
14373;SDS011;7270;49.004;12.066;2023-08-07T14:12:07;1.10;;;1.10;;
14373;SDS011;7270;49.004;12.066;2023-08-07T14:14:33;1.30;;;1.20;;
14373;SDS011;7270;49.004;12.066;2023-08-07T14:17:00;1.30;;;1.20;;
14373;SDS011;7270;49.004;12.066;2023-08-07T14:19:27;1.40;;;1.30;;
14373;SDS011;7270;49.004;12.066;2023-08-07T14:21:53;1.40;;;1.30;;
14373;SDS011;7270;49.004;12.066;2023-08-07T14:24:19;1.20;;;1.20;;
14373;SDS011;7270;49.004;12.066;2023-08-07T14:26:45;1.10;;;1.10;;
14373;SDS011;7270;49.004;12.066;2023-08-07T14:29:13;1.40;;;1.30;;
14373;SDS011;7270;49.004;12.066;2023-08-07T14:31:40;1.30;;;1.20;;
14373;SDS011;7270;49.004;12.066;2023-08-07T14:34:06;1.30;;;1.20;;
14373;SDS011;7270;49.004;12.066;2023-08-07T14:36:32;1.20;;;1.20;;
14373;SDS011;7270;49.004;12.066;2023-08-07T14:38:59;1.30;;;1.20;;
14373;SDS011;7270;49.004;12.066;2023-08-07T14:41:25;1.20;;;1.20;;
14373;SDS011;7270;49.004;12.066;2023-08-07T14:43:51;1.40;;;1.30;;
14373;SDS011;7270;49.004;12.066;2023-08-07T14:46:19;1.10;;;1.10;;
14373;SDS011;7270;49.004;12.066;2023-08-07T14:48:46;1.40;;;1.30;;